Peotone Weather
Station Historical Data
 
Daily Summary for December 09, 2016 Units:  English    Metric   Both
« Previous Day
Next Day »
Daily Weekly Monthly Yearly Custom
  Current: High: Low: Average:
Temperature: 22.6 °F 22.6 °F 20.0 °F 21.5 °F
Dew Point: 18.8 °F 19.0 °F 16.4 °F 17.9 °F
Humidity: 85% 87% 84% 86%
Wind Speed: 11.5mph 19.5mph 3.4mph 7.8mph
Wind Gust: 13.8mph 19.5mph - -
WindWNW - - WNW
Pressure: 30.54 in 30.54 in 30.49 in -
Precipitation: 0.00 in      
Historical Graphs
 
 
Tabular Data for December 09, 2016
Time Temperature Dew Point Pressure Wind Wind Speed Wind Gust Humidity Rainfall Rate (Hourly) solar Conditions
00:00 21.8 °F 17.7 °F 30.49 in WNW 5.8 mph 10.4 mph 84% 0.00 in 0.00 W/m2
00:04 21.7 °F 17.6 °F 30.49 in West 9.2 mph 10.3 mph 84% 0.00 in 0.00 W/m2
00:05 21.6 °F 17.5 °F 30.49 in West 3.5 mph 10.4 mph 84% 0.00 in 0.00 W/m2
00:10 21.5 °F 17.4 °F 30.49 in West 4.6 mph 8.1 mph 84% 0.00 in 0.00 W/m2
00:15 21.4 °F 17.6 °F 30.49 in West 6.9 mph 10.3 mph 85% 0.00 in 0.00 W/m2
00:20 21.3 °F 17.5 °F 30.49 in West 9.2 mph 11.5 mph 85% 0.00 in 0.00 W/m2
00:25 21.3 °F 17.5 °F 30.49 in WNW 5.8 mph 10.3 mph 85% 0.00 in 0.00 W/m2
00:30 21.2 °F 17.4 °F 30.49 in WNW 8.1 mph 9.2 mph 85% 0.00 in 0.00 W/m2
00:35 21.2 °F 17.4 °F 30.50 in WNW 5.8 mph 9.2 mph 85% 0.00 in 0.00 W/m2
00:40 21.1 °F 17.3 °F 30.50 in West 6.9 mph 9.2 mph 85% 0.00 in 0.00 W/m2
00:45 21.0 °F 17.2 °F 30.50 in WNW 6.9 mph 11.5 mph 85% 0.00 in 0.00 W/m2
00:50 20.9 °F 17.1 °F 30.50 in West 6.9 mph 13.8 mph 85% 0.00 in 0.00 W/m2
00:55 20.9 °F 17.1 °F 30.50 in WNW 8.1 mph 11.5 mph 85% 0.00 in 0.00 W/m2
01:00 20.8 °F 17.0 °F 30.50 in West 6.9 mph 9.2 mph 85% 0.00 in 0.00 W/m2
01:05 20.7 °F 16.9 °F 30.50 in West 3.4 mph 8.1 mph 85% 0.00 in 0.00 W/m2
01:10 20.6 °F 16.8 °F 30.50 in WNW 4.6 mph 9.2 mph 85% 0.00 in 0.00 W/m2
01:15 20.5 °F 16.7 °F 30.50 in WNW 6.9 mph 8.1 mph 85% 0.00 in 0.00 W/m2
01:20 20.3 °F 16.5 °F 30.51 in West 4.6 mph 9.2 mph 85% 0.00 in 0.00 W/m2
01:25 20.2 °F 16.4 °F 30.51 in West 4.6 mph 9.2 mph 85% 0.00 in 0.00 W/m2
01:26 20.2 °F 16.4 °F 30.51 in West 6.9 mph 9.2 mph 85% 0.00 in 0.00 W/m2
01:30 20.1 °F 16.6 °F 30.51 in West 6.9 mph 8.1 mph 86% 0.00 in 0.00 W/m2
01:31 20.1 °F 16.6 °F 30.51 in West 5.8 mph 8.1 mph 86% 0.00 in 0.00 W/m2
01:35 20.0 °F 16.5 °F 30.51 in West 5.8 mph 9.2 mph 86% 0.00 in 0.00 W/m2
01:36 20.0 °F 16.5 °F 30.51 in West 5.8 mph 9.2 mph 86% 0.00 in 0.00 W/m2
01:40 20.1 °F 16.6 °F 30.51 in WNW 4.6 mph 8.1 mph 86% 0.00 in 0.00 W/m2
01:41 20.1 °F 16.6 °F 30.51 in WNW 4.6 mph 8.1 mph 86% 0.00 in 0.00 W/m2
01:45 20.1 °F 16.6 °F 30.51 in West 4.6 mph 9.2 mph 86% 0.00 in 0.00 W/m2
01:46 20.1 °F 16.6 °F 30.51 in West 4.6 mph 9.2 mph 86% 0.00 in 0.00 W/m2
01:50 20.3 °F 16.8 °F 30.51 in West 5.8 mph 9.2 mph 86% 0.00 in 0.00 W/m2
01:51 20.3 °F 16.8 °F 30.51 in West 5.8 mph 9.2 mph 86% 0.00 in 0.00 W/m2
01:55 20.4 °F 16.9 °F 30.51 in West 4.6 mph 10.4 mph 86% 0.00 in 0.00 W/m2
01:56 20.4 °F 16.9 °F 30.51 in West 4.6 mph 10.3 mph 86% 0.00 in 0.00 W/m2
02:00 20.5 °F 17.0 °F 30.52 in West 5.8 mph 9.2 mph 86% 0.00 in 0.00 W/m2
02:01 20.5 °F 17.0 °F 30.52 in West 5.8 mph 9.2 mph 86% 0.00 in 0.00 W/m2
02:05 20.7 °F 17.2 °F 30.52 in West 4.6 mph 11.5 mph 86% 0.00 in 0.00 W/m2
02:06 20.7 °F 17.2 °F 30.52 in West 4.6 mph 11.5 mph 86% 0.00 in 0.00 W/m2
02:10 20.8 °F 17.3 °F 30.52 in WNW 9.2 mph 10.4 mph 86% 0.00 in 0.00 W/m2
02:11 20.8 °F 17.3 °F 30.52 in WNW 9.2 mph 10.3 mph 86% 0.00 in 0.00 W/m2
02:15 21.0 °F 17.5 °F 30.52 in WNW 5.8 mph 12.6 mph 86% 0.00 in 0.00 W/m2
02:16 21.0 °F 17.5 °F 30.52 in WNW 8.1 mph 8.1 mph 86% 0.00 in 0.00 W/m2
02:20 21.2 °F 17.9 °F 30.52 in West 8.1 mph 11.5 mph 87% 0.00 in 0.00 W/m2
02:21 21.2 °F 17.9 °F 30.52 in West 8.1 mph 10.3 mph 87% 0.00 in 0.00 W/m2
02:25 21.4 °F 18.1 °F 30.52 in NW 8.1 mph 10.4 mph 87% 0.00 in 0.00 W/m2
02:26 21.4 °F 17.9 °F 30.52 in WNW 8.1 mph 10.3 mph 86% 0.00 in 0.00 W/m2
02:30 21.6 °F 18.1 °F 30.52 in West 12.6 mph 17.2 mph 86% 0.00 in 0.00 W/m2
02:31 21.6 °F 18.1 °F 30.52 in NW 10.3 mph 12.6 mph 86% 0.00 in 0.00 W/m2
02:35 21.8 °F 18.3 °F 30.52 in West 9.2 mph 13.8 mph 86% 0.00 in 0.00 W/m2
02:36 21.9 °F 18.4 °F 30.52 in West 5.8 mph 10.3 mph 86% 0.00 in 0.00 W/m2
02:40 22.0 °F 18.5 °F 30.52 in West 10.4 mph 13.8 mph 86% 0.00 in 0.00 W/m2
02:41 22.0 °F 18.5 °F 30.52 in WNW 14.9 mph 14.9 mph 86% 0.00 in 0.00 W/m2
02:45 22.2 °F 18.7 °F 30.52 in WNW 5.8 mph 14.9 mph 86% 0.00 in 0.00 W/m2
02:47 22.2 °F 18.7 °F 30.53 in WNW 14.9 mph 16.1 mph 86% 0.00 in 0.00 W/m2
02:50 22.2 °F 18.4 °F 30.52 in West 11.5 mph 17.2 mph 85% 0.00 in 0.00 W/m2
02:52 22.2 °F 18.4 °F 30.52 in West 19.5 mph 19.5 mph 85% 0.00 in 0.00 W/m2
02:55 22.3 °F 18.5 °F 30.52 in WNW 6.9 mph 19.5 mph 85% 0.00 in 0.00 W/m2
02:57 22.3 °F 18.5 °F 30.52 in West 10.3 mph 13.8 mph 85% 0.00 in 0.00 W/m2
03:06 22.4 °F 18.6 °F 30.52 in West 6.9 mph 6.9 mph 85% 0.00 in 0.00 W/m2
03:11 22.3 °F 18.5 °F 30.53 in NW 6.9 mph 6.9 mph 85% 0.00 in 0.00 W/m2
03:16 22.4 °F 18.6 °F 30.53 in WNW 6.9 mph 10.3 mph 85% 0.00 in 0.00 W/m2
03:21 22.4 °F 18.6 °F 30.53 in NW 10.3 mph 12.6 mph 85% 0.00 in 0.00 W/m2
03:26 22.4 °F 18.9 °F 30.53 in WNW 9.2 mph 10.3 mph 86% 0.00 in 0.00 W/m2
03:31 22.4 °F 18.9 °F 30.53 in WNW 6.9 mph 9.2 mph 86% 0.00 in 0.00 W/m2
03:36 22.3 °F 18.8 °F 30.53 in WNW 10.3 mph 10.3 mph 86% 0.00 in 0.00 W/m2
03:41 22.3 °F 18.8 °F 30.52 in West 9.2 mph 9.2 mph 86% 0.00 in 0.00 W/m2
03:46 22.4 °F 18.9 °F 30.53 in West 5.8 mph 9.2 mph 86% 0.00 in 0.00 W/m2
03:51 22.4 °F 18.9 °F 30.53 in West 10.3 mph 12.6 mph 86% 0.00 in 0.00 W/m2
03:57 22.4 °F 18.9 °F 30.53 in West 6.9 mph 11.5 mph 86% 0.00 in 0.00 W/m2
04:02 22.4 °F 18.9 °F 30.53 in WNW 9.2 mph 10.3 mph 86% 0.00 in 0.00 W/m2
04:07 22.4 °F 18.9 °F 30.53 in WNW 8.1 mph 8.1 mph 86% 0.00 in 0.00 W/m2
04:12 22.4 °F 18.9 °F 30.53 in NW 5.8 mph 9.2 mph 86% 0.00 in 0.00 W/m2
04:17 22.4 °F 18.9 °F 30.53 in West 5.8 mph 10.3 mph 86% 0.00 in 0.00 W/m2
04:22 22.5 °F 19.0 °F 30.53 in West 3.4 mph 6.9 mph 86% 0.00 in 0.00 W/m2
04:27 22.5 °F 19.0 °F 30.53 in West 12.6 mph 12.6 mph 86% 0.00 in 0.00 W/m2
04:32 22.5 °F 19.0 °F 30.53 in WNW 9.2 mph 10.3 mph 86% 0.00 in 0.00 W/m2
04:37 22.5 °F 19.0 °F 30.53 in WNW 9.2 mph 11.5 mph 86% 0.00 in 0.00 W/m2
04:42 22.5 °F 19.0 °F 30.53 in NW 6.9 mph 8.1 mph 86% 0.00 in 0.00 W/m2
04:47 22.5 °F 19.0 °F 30.53 in WNW 8.1 mph 13.8 mph 86% 0.00 in 0.00 W/m2
04:52 22.5 °F 19.0 °F 30.53 in West 6.9 mph 12.6 mph 86% 0.00 in 0.00 W/m2
04:58 22.5 °F 19.0 °F 30.53 in West 6.9 mph 10.3 mph 86% 0.00 in 0.00 W/m2
05:03 22.6 °F 18.8 °F 30.53 in WNW 9.2 mph 12.6 mph 85% 0.00 in 0.00 W/m2
05:08 22.6 °F 18.8 °F 30.54 in West 16.1 mph 16.1 mph 85% 0.00 in 0.00 W/m2
05:13 22.6 °F 18.8 °F 30.54 in WNW 9.2 mph 13.8 mph 85% 0.00 in 0.00 W/m2
05:18 22.6 °F 18.8 °F 30.54 in West 11.5 mph 17.2 mph 85% 0.00 in 0.00 W/m2
05:23 22.6 °F 18.8 °F 30.54 in NW 13.8 mph 14.9 mph 85% 0.00 in 0.00 W/m2
05:28 22.6 °F 18.8 °F 30.54 in WNW 11.5 mph 13.8 mph 85% 0.00 in 0.00 W/m2
peotoneweather.com
Compliments of Weather Underground - 1 mb